sensor_id;sensor_type;location;lat;lon;timestamp;P1;durP1;ratioP1;P2;durP2;ratioP2
3811;SDS011;1921;49.368;11.068;2023-11-21T00:00:18;50.20;;;44.20;;
3811;SDS011;1921;49.368;11.068;2023-11-21T00:02:45;50.93;;;44.53;;
3811;SDS011;1921;49.368;11.068;2023-11-21T00:05:12;49.80;;;44.20;;
3811;SDS011;1921;49.368;11.068;2023-11-21T00:07:40;50.67;;;44.30;;
3811;SDS011;1921;49.368;11.068;2023-11-21T00:10:07;49.73;;;44.37;;
3811;SDS011;1921;49.368;11.068;2023-11-21T00:12:34;49.30;;;44.00;;
3811;SDS011;1921;49.368;11.068;2023-11-21T00:15:00;51.80;;;43.90;;
3811;SDS011;1921;49.368;11.068;2023-11-21T00:17:27;49.30;;;43.90;;
3811;SDS011;1921;49.368;11.068;2023-11-21T00:19:53;49.30;;;44.00;;
3811;SDS011;1921;49.368;11.068;2023-11-21T00:22:19;49.87;;;44.47;;
3811;SDS011;1921;49.368;11.068;2023-11-21T00:24:45;49.43;;;44.03;;
3811;SDS011;1921;49.368;11.068;2023-11-21T00:27:12;49.60;;;44.20;;
3811;SDS011;1921;49.368;11.068;2023-11-21T00:29:39;49.10;;;43.80;;
3811;SDS011;1921;49.368;11.068;2023-11-21T00:32:05;50.87;;;44.70;;
3811;SDS011;1921;49.368;11.068;2023-11-21T00:34:31;50.40;;;44.77;;
3811;SDS011;1921;49.368;11.068;2023-11-21T00:36:58;50.17;;;44.50;;
3811;SDS011;1921;49.368;11.068;2023-11-21T00:39:24;67.67;;;45.30;;
3811;SDS011;1921;49.368;11.068;2023-11-21T00:41:51;54.83;;;44.80;;
3811;SDS011;1921;49.368;11.068;2023-11-21T00:44:17;51.57;;;44.40;;
3811;SDS011;1921;49.368;11.068;2023-11-21T00:46:43;53.47;;;44.43;;
3811;SDS011;1921;49.368;11.068;2023-11-21T00:49:09;50.70;;;44.60;;
3811;SDS011;1921;49.368;11.068;2023-11-21T00:51:34;49.40;;;44.10;;
3811;SDS011;1921;49.368;11.068;2023-11-21T00:54:00;52.23;;;44.40;;
3811;SDS011;1921;49.368;11.068;2023-11-21T00:56:27;52.93;;;44.73;;
3811;SDS011;1921;49.368;11.068;2023-11-21T00:58:53;49.73;;;44.37;;
3811;SDS011;1921;49.368;11.068;2023-11-21T01:01:19;50.43;;;44.43;;
3811;SDS011;1921;49.368;11.068;2023-11-21T01:03:47;53.70;;;44.50;;
3811;SDS011;1921;49.368;11.068;2023-11-21T01:06:13;49.90;;;44.50;;
3811;SDS011;1921;49.368;11.068;2023-11-21T01:08:40;49.97;;;43.93;;
3811;SDS011;1921;49.368;11.068;2023-11-21T01:11:06;53.60;;;45.40;;
3811;SDS011;1921;49.368;11.068;2023-11-21T01:13:37;49.93;;;43.77;;
3811;SDS011;1921;49.368;11.068;2023-11-21T01:16:04;54.67;;;44.57;;
3811;SDS011;1921;49.368;11.068;2023-11-21T01:18:31;49.70;;;44.03;;
3811;SDS011;1921;49.368;11.068;2023-11-21T01:20:57;50.67;;;45.17;;
3811;SDS011;1921;49.368;11.068;2023-11-21T01:23:25;49.70;;;44.37;;
3811;SDS011;1921;49.368;11.068;2023-11-21T01:25:52;49.70;;;44.30;;
3811;SDS011;1921;49.368;11.068;2023-11-21T01:28:18;55.30;;;45.07;;
3811;SDS011;1921;49.368;11.068;2023-11-21T01:30:44;49.53;;;43.93;;
3811;SDS011;1921;49.368;11.068;2023-11-21T01:33:10;49.47;;;44.07;;
3811;SDS011;1921;49.368;11.068;2023-11-21T01:35:36;51.43;;;44.33;;
3811;SDS011;1921;49.368;11.068;2023-11-21T01:38:02;48.87;;;43.67;;
3811;SDS011;1921;49.368;11.068;2023-11-21T01:40:29;49.50;;;44.10;;
3811;SDS011;1921;49.368;11.068;2023-11-21T01:42:55;49.00;;;43.70;;
3811;SDS011;1921;49.368;11.068;2023-11-21T01:45:22;49.30;;;43.97;;
3811;SDS011;1921;49.368;11.068;2023-11-21T01:47:50;49.03;;;43.87;;
3811;SDS011;1921;49.368;11.068;2023-11-21T01:50:16;50.60;;;44.33;;
3811;SDS011;1921;49.368;11.068;2023-11-21T01:52:46;52.73;;;44.17;;
3811;SDS011;1921;49.368;11.068;2023-11-21T01:55:13;49.90;;;43.87;;
3811;SDS011;1921;49.368;11.068;2023-11-21T01:57:43;49.40;;;44.00;;
3811;SDS011;1921;49.368;11.068;2023-11-21T02:00:09;53.23;;;44.00;;
3811;SDS011;1921;49.368;11.068;2023-11-21T02:02:47;49.37;;;43.93;;
3811;SDS011;1921;49.368;11.068;2023-11-21T02:05:17;52.03;;;44.33;;
3811;SDS011;1921;49.368;11.068;2023-11-21T02:07:44;49.03;;;43.80;;
3811;SDS011;1921;49.368;11.068;2023-11-21T02:10:13;58.30;;;43.77;;
3811;SDS011;1921;49.368;11.068;2023-11-21T02:12:43;51.53;;;44.33;;
3811;SDS011;1921;49.368;11.068;2023-11-21T02:15:13;55.30;;;43.90;;
3811;SDS011;1921;49.368;11.068;2023-11-21T02:17:45;49.83;;;44.40;;
3811;SDS011;1921;49.368;11.068;2023-11-21T02:20:15;53.90;;;44.37;;
3811;SDS011;1921;49.368;11.068;2023-11-21T02:22:43;51.20;;;44.20;;
3811;SDS011;1921;49.368;11.068;2023-11-21T02:25:26;49.80;;;44.40;;
3811;SDS011;1921;49.368;11.068;2023-11-21T02:27:53;52.13;;;44.47;;
3811;SDS011;1921;49.368;11.068;2023-11-21T02:30:21;53.63;;;44.37;;
3811;SDS011;1921;49.368;11.068;2023-11-21T02:32:47;58.40;;;44.80;;
3811;SDS011;1921;49.368;11.068;2023-11-21T02:35:14;49.30;;;43.90;;
3811;SDS011;1921;49.368;11.068;2023-11-21T02:37:41;49.87;;;44.57;;
3811;SDS011;1921;49.368;11.068;2023-11-21T02:40:10;52.10;;;43.97;;
3811;SDS011;1921;49.368;11.068;2023-11-21T02:42:42;49.87;;;44.57;;
3811;SDS011;1921;49.368;11.068;2023-11-21T02:45:10;50.03;;;44.13;;
3811;SDS011;1921;49.368;11.068;2023-11-21T02:47:37;53.53;;;43.90;;
3811;SDS011;1921;49.368;11.068;2023-11-21T02:50:04;49.53;;;44.20;;
3811;SDS011;1921;49.368;11.068;2023-11-21T02:52:33;49.13;;;43.83;;
3811;SDS011;1921;49.368;11.068;2023-11-21T02:55:00;49.60;;;44.17;;
3811;SDS011;1921;49.368;11.068;2023-11-21T02:57:26;49.13;;;43.83;;
3811;SDS011;1921;49.368;11.068;2023-11-21T02:59:52;49.00;;;43.80;;
3811;SDS011;1921;49.368;11.068;2023-11-21T03:02:18;49.67;;;44.23;;
3811;SDS011;1921;49.368;11.068;2023-11-21T03:04:43;53.47;;;45.10;;
3811;SDS011;1921;49.368;11.068;2023-11-21T03:07:09;67.53;;;44.67;;
3811;SDS011;1921;49.368;11.068;2023-11-21T03:09:35;50.50;;;44.33;;
3811;SDS011;1921;49.368;11.068;2023-11-21T03:12:01;49.60;;;44.20;;
3811;SDS011;1921;49.368;11.068;2023-11-21T03:14:27;51.73;;;44.17;;
3811;SDS011;1921;49.368;11.068;2023-11-21T03:16:52;50.30;;;44.17;;
3811;SDS011;1921;49.368;11.068;2023-11-21T03:19:18;49.20;;;43.97;;
3811;SDS011;1921;49.368;11.068;2023-11-21T03:21:44;52.23;;;44.30;;
3811;SDS011;1921;49.368;11.068;2023-11-21T03:24:09;49.53;;;44.13;;
3811;SDS011;1921;49.368;11.068;2023-11-21T03:26:35;50.20;;;43.90;;
3811;SDS011;1921;49.368;11.068;2023-11-21T03:29:03;49.50;;;44.10;;
3811;SDS011;1921;49.368;11.068;2023-11-21T03:31:29;50.83;;;44.17;;
3811;SDS011;1921;49.368;11.068;2023-11-21T03:33:55;49.20;;;43.80;;
3811;SDS011;1921;49.368;11.068;2023-11-21T03:36:21;50.20;;;44.17;;
3811;SDS011;1921;49.368;11.068;2023-11-21T03:38:47;50.90;;;44.70;;
3811;SDS011;1921;49.368;11.068;2023-11-21T03:41:14;50.60;;;44.50;;
3811;SDS011;1921;49.368;11.068;2023-11-21T03:43:39;49.97;;;44.57;;
3811;SDS011;1921;49.368;11.068;2023-11-21T03:46:05;49.47;;;44.07;;
3811;SDS011;1921;49.368;11.068;2023-11-21T03:48:32;50.17;;;44.53;;
3811;SDS011;1921;49.368;11.068;2023-11-21T03:50:58;49.70;;;43.70;;
3811;SDS011;1921;49.368;11.068;2023-11-21T03:53:23;48.80;;;43.60;;
3811;SDS011;1921;49.368;11.068;2023-11-21T03:55:49;49.40;;;44.10;;
3811;SDS011;1921;49.368;11.068;2023-11-21T03:58:15;49.07;;;43.77;;
3811;SDS011;1921;49.368;11.068;2023-11-21T04:00:41;53.27;;;44.17;;
3811;SDS011;1921;49.368;11.068;2023-11-21T04:03:06;52.37;;;44.37;;
3811;SDS011;1921;49.368;11.068;2023-11-21T04:05:32;50.30;;;44.83;;
3811;SDS011;1921;49.368;11.068;2023-11-21T04:07:58;49.77;;;44.37;;
3811;SDS011;1921;49.368;11.068;2023-11-21T04:10:24;52.17;;;45.00;;
3811;SDS011;1921;49.368;11.068;2023-11-21T04:12:49;50.97;;;43.77;;
3811;SDS011;1921;49.368;11.068;2023-11-21T04:15:15;49.30;;;44.00;;
3811;SDS011;1921;49.368;11.068;2023-11-21T04:17:41;51.70;;;44.77;;
3811;SDS011;1921;49.368;11.068;2023-11-21T04:20:07;55.37;;;44.67;;
3811;SDS011;1921;49.368;11.068;2023-11-21T04:22:38;49.60;;;44.17;;
3811;SDS011;1921;49.368;11.068;2023-11-21T04:25:12;49.57;;;43.93;;
3811;SDS011;1921;49.368;11.068;2023-11-21T04:27:40;49.53;;;44.13;;
3811;SDS011;1921;49.368;11.068;2023-11-21T04:30:09;49.73;;;44.30;;
3811;SDS011;1921;49.368;11.068;2023-11-21T04:32:35;51.43;;;43.97;;
3811;SDS011;1921;49.368;11.068;2023-11-21T04:35:01;49.73;;;44.20;;
3811;SDS011;1921;49.368;11.068;2023-11-21T04:37:29;49.50;;;44.20;;
3811;SDS011;1921;49.368;11.068;2023-11-21T04:39:54;49.97;;;44.47;;
3811;SDS011;1921;49.368;11.068;2023-11-21T04:42:20;49.90;;;44.50;;
3811;SDS011;1921;49.368;11.068;2023-11-21T04:44:46;49.60;;;44.20;;
3811;SDS011;1921;49.368;11.068;2023-11-21T04:47:12;50.13;;;44.63;;
3811;SDS011;1921;49.368;11.068;2023-11-21T04:49:42;51.53;;;45.17;;
3811;SDS011;1921;49.368;11.068;2023-11-21T04:52:08;50.07;;;44.63;;
3811;SDS011;1921;49.368;11.068;2023-11-21T04:54:35;56.67;;;44.77;;
3811;SDS011;1921;49.368;11.068;2023-11-21T04:57:01;54.13;;;44.80;;
3811;SDS011;1921;49.368;11.068;2023-11-21T04:59:27;51.30;;;44.93;;
3811;SDS011;1921;49.368;11.068;2023-11-21T05:01:53;52.00;;;44.80;;
3811;SDS011;1921;49.368;11.068;2023-11-21T05:04:19;49.83;;;44.43;;
3811;SDS011;1921;49.368;11.068;2023-11-21T05:06:47;54.70;;;44.73;;
3811;SDS011;1921;49.368;11.068;2023-11-21T05:09:13;58.83;;;44.60;;
3811;SDS011;1921;49.368;11.068;2023-11-21T05:11:39;57.87;;;44.73;;
3811;SDS011;1921;49.368;11.068;2023-11-21T05:14:06;50.40;;;44.63;;
3811;SDS011;1921;49.368;11.068;2023-11-21T05:16:32;59.53;;;45.07;;
3811;SDS011;1921;49.368;11.068;2023-11-21T05:18:58;51.30;;;44.67;;
3811;SDS011;1921;49.368;11.068;2023-11-21T05:21:26;50.87;;;45.30;;
3811;SDS011;1921;49.368;11.068;2023-11-21T05:23:52;53.13;;;44.80;;
3811;SDS011;1921;49.368;11.068;2023-11-21T05:26:18;57.67;;;44.93;;
3811;SDS011;1921;49.368;11.068;2023-11-21T05:28:44;50.80;;;45.30;;
3811;SDS011;1921;49.368;11.068;2023-11-21T05:31:10;49.40;;;44.10;;
3811;SDS011;1921;49.368;11.068;2023-11-21T05:33:36;51.30;;;45.20;;
3811;SDS011;1921;49.368;11.068;2023-11-21T05:36:02;57.60;;;45.00;;
3811;SDS011;1921;49.368;11.068;2023-11-21T05:38:28;49.90;;;44.53;;
3811;SDS011;1921;49.368;11.068;2023-11-21T05:40:54;51.70;;;45.00;;
3811;SDS011;1921;49.368;11.068;2023-11-21T05:43:20;52.23;;;45.83;;
3811;SDS011;1921;49.368;11.068;2023-11-21T05:45:45;58.10;;;45.60;;
3811;SDS011;1921;49.368;11.068;2023-11-21T05:48:11;55.97;;;45.83;;
3811;SDS011;1921;49.368;11.068;2023-11-21T05:50:37;56.07;;;46.00;;
3811;SDS011;1921;49.368;11.068;2023-11-21T05:53:03;50.40;;;44.93;;
3811;SDS011;1921;49.368;11.068;2023-11-21T05:55:29;50.33;;;44.93;;
3811;SDS011;1921;49.368;11.068;2023-11-21T05:57:55;51.50;;;44.90;;
3811;SDS011;1921;49.368;11.068;2023-11-21T06:00:20;50.87;;;44.90;;
3811;SDS011;1921;49.368;11.068;2023-11-21T06:02:51;53.70;;;45.93;;
3811;SDS011;1921;49.368;11.068;2023-11-21T06:05:19;53.90;;;45.07;;
3811;SDS011;1921;49.368;11.068;2023-11-21T06:07:48;50.80;;;45.00;;
3811;SDS011;1921;49.368;11.068;2023-11-21T06:10:15;53.00;;;45.07;;
3811;SDS011;1921;49.368;11.068;2023-11-21T06:12:42;49.43;;;44.10;;
3811;SDS011;1921;49.368;11.068;2023-11-21T06:15:09;50.97;;;45.37;;
3811;SDS011;1921;49.368;11.068;2023-11-21T06:17:40;54.50;;;45.63;;
3811;SDS011;1921;49.368;11.068;2023-11-21T06:20:07;53.00;;;46.40;;
3811;SDS011;1921;49.368;11.068;2023-11-21T06:25:06;54.80;;;45.80;;
3811;SDS011;1921;49.368;11.068;2023-11-21T06:27:34;57.93;;;45.80;;
3811;SDS011;1921;49.368;11.068;2023-11-21T06:30:07;55.80;;;45.57;;
3811;SDS011;1921;49.368;11.068;2023-11-21T06:32:34;51.17;;;45.50;;
3811;SDS011;1921;49.368;11.068;2023-11-21T06:35:02;57.00;;;45.33;;
3811;SDS011;1921;49.368;11.068;2023-11-21T06:37:29;53.67;;;45.53;;
3811;SDS011;1921;49.368;11.068;2023-11-21T06:39:57;53.27;;;45.97;;
3811;SDS011;1921;49.368;11.068;2023-11-21T06:42:24;52.23;;;45.17;;
3811;SDS011;1921;49.368;11.068;2023-11-21T06:44:50;50.97;;;45.40;;
3811;SDS011;1921;49.368;11.068;2023-11-21T06:47:17;56.83;;;45.03;;
3811;SDS011;1921;49.368;11.068;2023-11-21T06:49:45;56.70;;;45.80;;
3811;SDS011;1921;49.368;11.068;2023-11-21T06:52:12;50.97;;;45.40;;
3811;SDS011;1921;49.368;11.068;2023-11-21T06:54:38;59.43;;;46.93;;
3811;SDS011;1921;49.368;11.068;2023-11-21T06:57:04;53.67;;;45.10;;
3811;SDS011;1921;49.368;11.068;2023-11-21T06:59:30;54.23;;;46.40;;
3811;SDS011;1921;49.368;11.068;2023-11-21T07:01:56;57.37;;;45.80;;
3811;SDS011;1921;49.368;11.068;2023-11-21T07:04:22;51.20;;;45.50;;
3811;SDS011;1921;49.368;11.068;2023-11-21T07:06:50;53.17;;;45.87;;
3811;SDS011;1921;49.368;11.068;2023-11-21T07:09:17;51.10;;;45.50;;
3811;SDS011;1921;49.368;11.068;2023-11-21T07:11:42;54.43;;;45.57;;
3811;SDS011;1921;49.368;11.068;2023-11-21T07:14:08;52.87;;;45.40;;
3811;SDS011;1921;49.368;11.068;2023-11-21T07:16:34;56.27;;;46.10;;
3811;SDS011;1921;49.368;11.068;2023-11-21T07:19:02;52.27;;;45.90;;
3811;SDS011;1921;49.368;11.068;2023-11-21T07:21:31;52.10;;;45.90;;
3811;SDS011;1921;49.368;11.068;2023-11-21T07:23:58;51.50;;;45.73;;
3811;SDS011;1921;49.368;11.068;2023-11-21T07:26:30;53.37;;;45.80;;
3811;SDS011;1921;49.368;11.068;2023-11-21T07:28:56;54.47;;;46.27;;
3811;SDS011;1921;49.368;11.068;2023-11-21T07:31:22;55.27;;;46.33;;
3811;SDS011;1921;49.368;11.068;2023-11-21T07:33:49;57.70;;;46.17;;
3811;SDS011;1921;49.368;11.068;2023-11-21T07:36:21;57.80;;;46.00;;
3811;SDS011;1921;49.368;11.068;2023-11-21T07:38:47;55.23;;;45.53;;
3811;SDS011;1921;49.368;11.068;2023-11-21T07:41:13;51.97;;;45.60;;
3811;SDS011;1921;49.368;11.068;2023-11-21T07:43:42;52.00;;;45.77;;
3811;SDS011;1921;49.368;11.068;2023-11-21T07:46:11;55.70;;;46.33;;
3811;SDS011;1921;49.368;11.068;2023-11-21T07:48:42;57.00;;;47.40;;
3811;SDS011;1921;49.368;11.068;2023-11-21T07:51:09;53.17;;;46.27;;
3811;SDS011;1921;49.368;11.068;2023-11-21T07:53:35;54.53;;;46.23;;
3811;SDS011;1921;49.368;11.068;2023-11-21T07:56:08;54.47;;;46.20;;
3811;SDS011;1921;49.368;11.068;2023-11-21T07:58:34;54.87;;;46.60;;
3811;SDS011;1921;49.368;11.068;2023-11-21T08:01:01;54.97;;;46.93;;
3811;SDS011;1921;49.368;11.068;2023-11-21T08:03:28;54.97;;;46.50;;
3811;SDS011;1921;49.368;11.068;2023-11-21T08:05:57;56.90;;;47.00;;
3811;SDS011;1921;49.368;11.068;2023-11-21T08:08:24;57.73;;;47.40;;
3811;SDS011;1921;49.368;11.068;2023-11-21T08:10:50;56.73;;;47.90;;
3811;SDS011;1921;49.368;11.068;2023-11-21T08:13:22;58.93;;;47.60;;
3811;SDS011;1921;49.368;11.068;2023-11-21T08:15:50;56.97;;;47.13;;
3811;SDS011;1921;49.368;11.068;2023-11-21T08:18:15;64.43;;;48.33;;
3811;SDS011;1921;49.368;11.068;2023-11-21T08:20:42;61.33;;;47.83;;
3811;SDS011;1921;49.368;11.068;2023-11-21T08:23:13;63.73;;;47.70;;
3811;SDS011;1921;49.368;11.068;2023-11-21T08:25:43;57.70;;;47.43;;
3811;SDS011;1921;49.368;11.068;2023-11-21T08:28:09;59.03;;;48.10;;
3811;SDS011;1921;49.368;11.068;2023-11-21T08:30:35;60.20;;;47.50;;
3811;SDS011;1921;49.368;11.068;2023-11-21T08:33:00;58.27;;;47.93;;
3811;SDS011;1921;49.368;11.068;2023-11-21T08:35:28;60.60;;;47.43;;
3811;SDS011;1921;49.368;11.068;2023-11-21T08:37:54;58.27;;;47.40;;
3811;SDS011;1921;49.368;11.068;2023-11-21T08:40:20;56.77;;;48.03;;
3811;SDS011;1921;49.368;11.068;2023-11-21T08:42:49;59.70;;;47.00;;
3811;SDS011;1921;49.368;11.068;2023-11-21T08:45:17;61.00;;;47.30;;
3811;SDS011;1921;49.368;11.068;2023-11-21T08:47:44;57.93;;;46.90;;
3811;SDS011;1921;49.368;11.068;2023-11-21T08:50:10;55.33;;;46.60;;
3811;SDS011;1921;49.368;11.068;2023-11-21T08:52:37;56.57;;;47.17;;
3811;SDS011;1921;49.368;11.068;2023-11-21T08:55:07;61.10;;;47.13;;
3811;SDS011;1921;49.368;11.068;2023-11-21T08:57:36;57.70;;;47.43;;
3811;SDS011;1921;49.368;11.068;2023-11-21T09:00:04;56.80;;;46.70;;
3811;SDS011;1921;49.368;11.068;2023-11-21T09:02:35;56.87;;;47.97;;
3811;SDS011;1921;49.368;11.068;2023-11-21T09:05:02;60.33;;;47.30;;
3811;SDS011;1921;49.368;11.068;2023-11-21T09:07:31;57.67;;;47.10;;
3811;SDS011;1921;49.368;11.068;2023-11-21T09:09:56;58.23;;;46.93;;
3811;SDS011;1921;49.368;11.068;2023-11-21T09:12:22;63.77;;;48.60;;
3811;SDS011;1921;49.368;11.068;2023-11-21T09:14:50;57.80;;;47.60;;
3811;SDS011;1921;49.368;11.068;2023-11-21T09:17:17;59.27;;;48.00;;
3811;SDS011;1921;49.368;11.068;2023-11-21T09:19:43;66.63;;;48.70;;
3811;SDS011;1921;49.368;11.068;2023-11-21T09:22:16;61.40;;;48.40;;
3811;SDS011;1921;49.368;11.068;2023-11-21T09:24:42;57.67;;;47.63;;
3811;SDS011;1921;49.368;11.068;2023-11-21T09:27:09;60.17;;;47.87;;
3811;SDS011;1921;49.368;11.068;2023-11-21T09:29:36;58.73;;;47.90;;
3811;SDS011;1921;49.368;11.068;2023-11-21T09:32:04;57.50;;;47.10;;
3811;SDS011;1921;49.368;11.068;2023-11-21T09:34:33;59.47;;;48.10;;
3811;SDS011;1921;49.368;11.068;2023-11-21T09:37:03;57.20;;;47.70;;
3811;SDS011;1921;49.368;11.068;2023-11-21T09:39:30;62.83;;;49.00;;
3811;SDS011;1921;49.368;11.068;2023-11-21T09:41:57;64.30;;;48.70;;
3811;SDS011;1921;49.368;11.068;2023-11-21T09:44:58;60.23;;;48.00;;
3811;SDS011;1921;49.368;11.068;2023-11-21T09:47:33;63.80;;;47.57;;
3811;SDS011;1921;49.368;11.068;2023-11-21T09:50:03;59.23;;;48.53;;
3811;SDS011;1921;49.368;11.068;2023-11-21T09:52:33;59.43;;;47.70;;
3811;SDS011;1921;49.368;11.068;2023-11-21T09:55:32;62.83;;;47.70;;
3811;SDS011;1921;49.368;11.068;2023-11-21T09:58:03;62.17;;;48.40;;
3811;SDS011;1921;49.368;11.068;2023-11-21T10:00:33;58.57;;;47.57;;
3811;SDS011;1921;49.368;11.068;2023-11-21T10:02:59;61.43;;;48.30;;
3811;SDS011;1921;49.368;11.068;2023-11-21T10:05:25;60.07;;;47.97;;
3811;SDS011;1921;49.368;11.068;2023-11-21T10:07:51;68.00;;;49.20;;
3811;SDS011;1921;49.368;11.068;2023-11-21T10:10:18;64.73;;;49.20;;
3811;SDS011;1921;49.368;11.068;2023-11-21T10:12:48;59.67;;;48.17;;
3811;SDS011;1921;49.368;11.068;2023-11-21T10:15:21;61.00;;;48.37;;
3811;SDS011;1921;49.368;11.068;2023-11-21T10:17:51;58.07;;;47.10;;
3811;SDS011;1921;49.368;11.068;2023-11-21T10:20:22;62.77;;;49.50;;
3811;SDS011;1921;49.368;11.068;2023-11-21T10:22:49;62.57;;;49.10;;
3811;SDS011;1921;49.368;11.068;2023-11-21T10:25:15;60.27;;;48.90;;
3811;SDS011;1921;49.368;11.068;2023-11-21T10:27:43;60.60;;;49.07;;
3811;SDS011;1921;49.368;11.068;2023-11-21T10:30:13;68.30;;;50.20;;
3811;SDS011;1921;49.368;11.068;2023-11-21T10:32:41;62.77;;;50.00;;
3811;SDS011;1921;49.368;11.068;2023-11-21T10:35:08;63.93;;;49.43;;
3811;SDS011;1921;49.368;11.068;2023-11-21T10:37:44;63.63;;;50.00;;
3811;SDS011;1921;49.368;11.068;2023-11-21T10:40:24;62.10;;;49.90;;
3811;SDS011;1921;49.368;11.068;2023-11-21T10:42:54;61.77;;;49.03;;
3811;SDS011;1921;49.368;11.068;2023-11-21T10:45:24;64.40;;;50.40;;
3811;SDS011;1921;49.368;11.068;2023-11-21T10:47:51;64.53;;;50.60;;
3811;SDS011;1921;49.368;11.068;2023-11-21T10:50:18;64.10;;;50.30;;
3811;SDS011;1921;49.368;11.068;2023-11-21T10:52:44;63.70;;;50.60;;
3811;SDS011;1921;49.368;11.068;2023-11-21T10:55:21;63.40;;;50.13;;
3811;SDS011;1921;49.368;11.068;2023-11-21T10:57:53;64.63;;;49.00;;
3811;SDS011;1921;49.368;11.068;2023-11-21T11:00:22;63.33;;;48.83;;
3811;SDS011;1921;49.368;11.068;2023-11-21T11:02:51;69.20;;;48.30;;
3811;SDS011;1921;49.368;11.068;2023-11-21T11:05:23;59.57;;;48.47;;
3811;SDS011;1921;49.368;11.068;2023-11-21T11:07:51;55.13;;;46.57;;
3811;SDS011;1921;49.368;11.068;2023-11-21T11:10:32;60.60;;;48.17;;
3811;SDS011;1921;49.368;11.068;2023-11-21T11:12:58;55.47;;;46.80;;
3811;SDS011;1921;49.368;11.068;2023-11-21T11:15:26;56.27;;;47.03;;
3811;SDS011;1921;49.368;11.068;2023-11-21T11:17:54;56.00;;;46.80;;
3811;SDS011;1921;49.368;11.068;2023-11-21T11:20:25;57.10;;;46.80;;
3811;SDS011;1921;49.368;11.068;2023-11-21T11:25:45;55.30;;;46.50;;
3811;SDS011;1921;49.368;11.068;2023-11-21T11:28:57;58.17;;;48.10;;
3811;SDS011;1921;49.368;11.068;2023-11-21T11:31:47;52.73;;;45.17;;
3811;SDS011;1921;49.368;11.068;2023-11-21T11:35:03;56.03;;;47.30;;
3811;SDS011;1921;49.368;11.068;2023-11-21T11:37:39;53.30;;;46.10;;
3811;SDS011;1921;49.368;11.068;2023-11-21T11:40:10;55.40;;;46.30;;
3811;SDS011;1921;49.368;11.068;2023-11-21T11:42:37;58.63;;;48.27;;
3811;SDS011;1921;49.368;11.068;2023-11-21T11:45:08;57.30;;;47.70;;
3811;SDS011;1921;49.368;11.068;2023-11-21T11:47:44;56.30;;;47.00;;
3811;SDS011;1921;49.368;11.068;2023-11-21T11:50:13;58.40;;;48.00;;
3811;SDS011;1921;49.368;11.068;2023-11-21T11:55:17;59.80;;;48.40;;
3811;SDS011;1921;49.368;11.068;2023-11-21T11:57:47;59.47;;;48.53;;
3811;SDS011;1921;49.368;11.068;2023-11-21T12:00:20;56.60;;;47.33;;
3811;SDS011;1921;49.368;11.068;2023-11-21T12:02:54;58.30;;;47.30;;
3811;SDS011;1921;49.368;11.068;2023-11-21T12:05:22;58.30;;;48.03;;
3811;SDS011;1921;49.368;11.068;2023-11-21T12:10:24;59.00;;;48.00;;
3811;SDS011;1921;49.368;11.068;2023-11-21T12:12:54;58.37;;;48.30;;
3811;SDS011;1921;49.368;11.068;2023-11-21T12:15:22;57.97;;;47.13;;
3811;SDS011;1921;49.368;11.068;2023-11-21T12:17:49;57.40;;;47.37;;
3811;SDS011;1921;49.368;11.068;2023-11-21T12:20:18;61.30;;;48.20;;
3811;SDS011;1921;49.368;11.068;2023-11-21T12:22:46;57.03;;;47.23;;
3811;SDS011;1921;49.368;11.068;2023-11-21T12:28:02;57.03;;;47.53;;
3811;SDS011;1921;49.368;11.068;2023-11-21T12:30:29;59.90;;;47.00;;
3811;SDS011;1921;49.368;11.068;2023-11-21T12:32:57;56.43;;;47.10;;
3811;SDS011;1921;49.368;11.068;2023-11-21T12:35:25;57.17;;;46.80;;
3811;SDS011;1921;49.368;11.068;2023-11-21T12:37:56;59.00;;;47.47;;
3811;SDS011;1921;49.368;11.068;2023-11-21T12:40:25;55.37;;;46.30;;
3811;SDS011;1921;49.368;11.068;2023-11-21T12:42:52;56.37;;;46.67;;
3811;SDS011;1921;49.368;11.068;2023-11-21T12:45:23;55.33;;;46.80;;
3811;SDS011;1921;49.368;11.068;2023-11-21T12:48:01;55.90;;;46.63;;
3811;SDS011;1921;49.368;11.068;2023-11-21T12:50:33;51.90;;;45.03;;
3811;SDS011;1921;49.368;11.068;2023-11-21T12:53:02;52.53;;;45.27;;
3811;SDS011;1921;49.368;11.068;2023-11-21T12:55:30;55.73;;;47.13;;
3811;SDS011;1921;49.368;11.068;2023-11-21T12:57:59;56.77;;;46.30;;
3811;SDS011;1921;49.368;11.068;2023-11-21T13:00:38;53.07;;;46.20;;
3811;SDS011;1921;49.368;11.068;2023-11-21T13:03:13;55.90;;;46.93;;
3811;SDS011;1921;49.368;11.068;2023-11-21T13:05:44;60.63;;;48.97;;
3811;SDS011;1921;49.368;11.068;2023-11-21T13:08:16;58.53;;;47.50;;
3811;SDS011;1921;49.368;11.068;2023-11-21T13:10:48;65.83;;;49.60;;
3811;SDS011;1921;49.368;11.068;2023-11-21T13:13:20;61.60;;;49.03;;
3811;SDS011;1921;49.368;11.068;2023-11-21T13:15:50;60.27;;;48.53;;
3811;SDS011;1921;49.368;11.068;2023-11-21T13:18:18;56.33;;;46.97;;
3811;SDS011;1921;49.368;11.068;2023-11-21T13:20:46;56.60;;;46.10;;
3811;SDS011;1921;49.368;11.068;2023-11-21T13:23:12;58.70;;;47.30;;
3811;SDS011;1921;49.368;11.068;2023-11-21T13:25:38;53.70;;;46.03;;
3811;SDS011;1921;49.368;11.068;2023-11-21T13:28:07;56.80;;;47.03;;
3811;SDS011;1921;49.368;11.068;2023-11-21T13:30:34;56.10;;;46.30;;
3811;SDS011;1921;49.368;11.068;2023-11-21T13:33:03;56.27;;;47.47;;
3811;SDS011;1921;49.368;11.068;2023-11-21T13:35:38;58.23;;;47.80;;
3811;SDS011;1921;49.368;11.068;2023-11-21T13:38:12;56.80;;;46.60;;
3811;SDS011;1921;49.368;11.068;2023-11-21T13:40:42;52.47;;;45.30;;
3811;SDS011;1921;49.368;11.068;2023-11-21T13:43:18;53.50;;;45.70;;
3811;SDS011;1921;49.368;11.068;2023-11-21T13:45:49;52.77;;;45.63;;
3811;SDS011;1921;49.368;11.068;2023-11-21T13:48:23;52.07;;;45.30;;
3811;SDS011;1921;49.368;11.068;2023-11-21T13:51:08;58.90;;;46.87;;
3811;SDS011;1921;49.368;11.068;2023-11-21T13:53:47;51.33;;;45.43;;
3811;SDS011;1921;49.368;11.068;2023-11-21T13:56:15;53.00;;;46.00;;
3811;SDS011;1921;49.368;11.068;2023-11-21T13:58:49;51.50;;;45.20;;
3811;SDS011;1921;49.368;11.068;2023-11-21T14:01:19;51.87;;;45.63;;
3811;SDS011;1921;49.368;11.068;2023-11-21T14:04:04;53.97;;;46.50;;
3811;SDS011;1921;49.368;11.068;2023-11-21T14:06:42;51.33;;;45.30;;
3811;SDS011;1921;49.368;11.068;2023-11-21T14:09:16;54.33;;;46.17;;
3811;SDS011;1921;49.368;11.068;2023-11-21T14:11:52;52.73;;;46.00;;
3811;SDS011;1921;49.368;11.068;2023-11-21T14:14:22;52.40;;;46.07;;
3811;SDS011;1921;49.368;11.068;2023-11-21T14:16:50;61.43;;;46.60;;
3811;SDS011;1921;49.368;11.068;2023-11-21T14:19:17;51.43;;;45.03;;
3811;SDS011;1921;49.368;11.068;2023-11-21T14:21:46;55.53;;;46.47;;
3811;SDS011;1921;49.368;11.068;2023-11-21T14:24:15;55.63;;;46.33;;
3811;SDS011;1921;49.368;11.068;2023-11-21T14:26:45;54.40;;;46.40;;
3811;SDS011;1921;49.368;11.068;2023-11-21T14:29:12;56.60;;;46.80;;
3811;SDS011;1921;49.368;11.068;2023-11-21T14:31:41;63.80;;;46.37;;
3811;SDS011;1921;49.368;11.068;2023-11-21T14:34:08;54.37;;;46.03;;
3811;SDS011;1921;49.368;11.068;2023-11-21T14:36:35;54.30;;;46.47;;
3811;SDS011;1921;49.368;11.068;2023-11-21T14:39:02;60.90;;;46.70;;
3811;SDS011;1921;49.368;11.068;2023-11-21T14:41:32;54.47;;;46.40;;
3811;SDS011;1921;49.368;11.068;2023-11-21T14:44:00;53.67;;;46.03;;
3811;SDS011;1921;49.368;11.068;2023-11-21T14:46:28;52.40;;;45.40;;
3811;SDS011;1921;49.368;11.068;2023-11-21T14:48:54;52.90;;;45.90;;
3811;SDS011;1921;49.368;11.068;2023-11-21T14:51:40;56.10;;;46.50;;
3811;SDS011;1921;49.368;11.068;2023-11-21T14:54:29;52.73;;;45.83;;